Airfield :
LOGIN :

Register | Disclaimer

   EN    FR    IT 

 










Legend :    VFR   Marginal VFR   IFR   Intensive IFR   Very Intensive IFR
Visi :
Ceiling :
>= 8 km
>= 3000ft
5 to 8 km
1000 to 3000 ft
1500m to 5 km
500 to 1000 ft
800 to 1500m
200 to 500 ft
< 800m
< 200 ft
Symbols :   Thunderstorms  Fog  Heavy snow  Heavy precipitations  Wind > 20 kt
SIGMETs :     Misc.  Thunderstorms  Icing  Turbulence  Mountain Waves  Volcanic Ashes






- Airport Elevation : 46 ft
- IATA code : SNN


EINN - Shannon

CURRENT METAR :
  • 202330Z 23003KT CAVOK 13/12 Q1019 NOSIG

EXPIRED METARs :
  • 202300Z 23003KT CAVOK 12/11 Q1020 NOSIG
  • 202230Z 23001KT CAVOK 12/12 Q1020 NOSIG
  • 202200Z 30004KT CAVOK 12/11 Q1020 NOSIG
  • 202130Z 08001KT CAVOK 13/11 Q1020 NOSIG
  • 202100Z 10002KT CAVOK 13/12 Q1020 NOSIG

TAF TAF EINN
Valid from the 21 at 00:00 until the 22 at 00:00 UTC


202300Z 2100/2124 VRB03KT 9999 FEW020
PROB40
TEMPO 2100/2101 3000 BR BKN003
BECMG 2101/2104 3000 BR BKN003
TEMPO 2101/2108 0500 FG BKN001
BECMG 2108/2110 9999 NSW BKN012
BECMG 2110/2112 FEW012 SCT020
BECMG 2114/2116 30007KT
BECMG 2119/2121 VRB03KT
PROB30
TEMPO 2123/2124 3000 BR



MET'MAP, your aeronautical weather chart ! - Copyright ORBIFLY December 2007 - Disclaimer

ORBIFLY MET'MAP TEAM :

Programming & Development : Alexandra Zaïnal
Concept & original design : Baudouin d'Aumeries
Assistance for programming : Marc-Olivier Méhu
Technical & hardware support : Manuel Goepfert

Contact : metmap@orbifly.com




SOURCES & CREDITS :

   NOAA